Darstellungsparameter: Aktuell verwendete Einstellungen:
Skalierung der Graphiken ... ?
xyx+y,   Skalierungsfaktor:      Skalierung: Modus: x, Faktor: 1
Darstellungszeitraum ... ?
Vom - - bis: - -   Zeitraum: 09.08.2020 - 09.08.2020
Min/Max/Avg-Anzeige ... ?
Zeige MMA aktuell
Zeige MMA Monat
Zeige MMA alles
Zeige --A aktuell
Zeige --A Monat
Zeige --A alles
Keine MMA-Anzeige
MMA:
Average (ber die Originaldaten)
MMA-Basis: 09.08.2020 - 09.08.2020
Quicknavigation für Darstellung... ?
Tage:      1T, 2T, 3T, 5T -1T -2T -3T -5T +1T +2T +3T +5T
Wochen: 1W, 2W, 3W -1W -2W -3W +1W +2W +3W
Monate: 1M, 3M, 6M -1M -3M -6M +1M +3M +6M
Jahre:    1J, 3J, 5J, 10J -1J -3J -5J -10J +1J +3J +5J +10J
Nutze für die Darstellung ... ?
Originaldaten oder Mittelwerte auf ...
Stundenbasis Tagesbasis Wochenbasis
Monatsbasis Jahresbasis      Datenbasis: Original-Daten
Darstellen als:
Statistik (Auto) Statistik J:M      Darstellung:
Zur Graphik,    zurück zur Übersicht aller Sensoren.
 
Tabellarische Datenbersicht: ?
 
Sensor: Nr:Datum:Temp:Abs-Feuchte:Windchill:Wind:
Aussen-T/F 1 09-08-2020 00:00:00 23.6 C 13.61 g/m*3 23.6 C 0 km/h
2 09-08-2020 00:05:00 23.4 C 13.67 g/m*3 23.4 C 0 km/h
3 09-08-2020 00:10:00 23.3 C 13.38 g/m*3 23.3 C 0 km/h
4 09-08-2020 00:15:00 23.2 C 13.51 g/m*3 23.2 C 0 km/h
5 09-08-2020 00:20:00 23.1 C 13.23 g/m*3 23.1 C 0 km/h
6 09-08-2020 00:25:00 23.1 C 13.44 g/m*3 23.1 C 0 km/h
7 09-08-2020 00:30:00 22.9 C 13.28 g/m*3 22.9 C 0 km/h
8 09-08-2020 00:35:00 22.8 C 13.41 g/m*3 22.8 C 0 km/h
9 09-08-2020 00:40:00 22.8 C 13.41 g/m*3 22.8 C 0 km/h
10 09-08-2020 00:45:00 22.7 C 13.33 g/m*3 22.7 C 0 km/h
11 09-08-2020 00:50:00 22.7 C 13.13 g/m*3 22.7 C 0 km/h
12 09-08-2020 00:55:00 22.6 C 13.26 g/m*3 22.6 C 0 km/h
13 09-08-2020 01:00:00 22.6 C 13.46 g/m*3 22.6 C 0 km/h
14 09-08-2020 01:05:00 22.4 C 13.5 g/m*3 22.4 C 0 km/h
15 09-08-2020 01:10:00 22.3 C 13.23 g/m*3 22.3 C 0 km/h
16 09-08-2020 01:15:00 22.2 C 13.35 g/m*3 22.2 C 0 km/h
17 09-08-2020 01:20:00 22.2 C 13.35 g/m*3 22.2 C 0 km/h
18 09-08-2020 01:25:00 22.1 C 13.27 g/m*3 22.1 C 0 km/h
19 09-08-2020 01:30:00 22.1 C 13.47 g/m*3 22.1 C 0 km/h
20 09-08-2020 01:35:00 21.9 C 13.31 g/m*3 21.9 C 0 km/h
21 09-08-2020 01:40:00 21.7 C 13.16 g/m*3 21.7 C 0 km/h
22 09-08-2020 01:45:00 21.6 C 13.28 g/m*3 21.6 C 0 km/h
23 09-08-2020 01:50:00 21.5 C 13.2 g/m*3 21.5 C 0 km/h
24 09-08-2020 01:55:00 21.4 C 13.12 g/m*3 21.4 C 0 km/h
25 09-08-2020 02:00:00 21.4 C 13.31 g/m*3 21.4 C 0 km/h
Sensor: Nr:Datum:Temp:Abs-Feuchte:Windchill:Wind:
Aussen-T/F 26 09-08-2020 02:05:00 21.3 C 13.05 g/m*3 21.3 C 0 km/h
27 09-08-2020 02:10:00 21.2 C 13.16 g/m*3 21.2 C 0 km/h
28 09-08-2020 02:15:00 21.1 C 13.08 g/m*3 21.1 C 0 km/h
29 09-08-2020 02:20:00 21 C 13.19 g/m*3 21 C 0 km/h
30 09-08-2020 02:25:00 20.9 C 13.11 g/m*3 20.9 C 0 km/h
31 09-08-2020 02:30:00 20.8 C 13.22 g/m*3 20.8 C 0 km/h
32 09-08-2020 02:35:00 20.7 C 13.14 g/m*3 20.7 C 0 km/h
33 09-08-2020 02:40:00 20.7 C 13.14 g/m*3 20.7 C 0 km/h
34 09-08-2020 02:45:00 20.6 C 13.07 g/m*3 20.6 C 0 km/h
35 09-08-2020 02:50:00 20.4 C 12.91 g/m*3 20.4 C 0 km/h
36 09-08-2020 02:55:00 20.4 C 12.91 g/m*3 20.4 C 0 km/h
37 09-08-2020 03:00:00 20.3 C 12.84 g/m*3 20.3 C 0 km/h
38 09-08-2020 03:05:00 20.3 C 12.84 g/m*3 20.3 C 0 km/h
39 09-08-2020 03:10:00 20.2 C 12.94 g/m*3 20.2 C 0 km/h
40 09-08-2020 03:15:00 20.1 C 12.86 g/m*3 20.1 C 0 km/h
41 09-08-2020 03:20:00 20 C 12.79 g/m*3 20 C 0 km/h
42 09-08-2020 03:25:00 19.9 C 12.89 g/m*3 19.9 C 0 km/h
43 09-08-2020 03:30:00 19.8 C 12.81 g/m*3 19.8 C 0 km/h
44 09-08-2020 03:35:00 19.8 C 12.98 g/m*3 19.8 C 0 km/h
45 09-08-2020 03:40:00 19.7 C 12.91 g/m*3 19.7 C 0 km/h
46 09-08-2020 03:45:00 19.7 C 12.91 g/m*3 19.7 C 0 km/h
47 09-08-2020 03:50:00 19.7 C 12.91 g/m*3 19.7 C 0 km/h
48 09-08-2020 03:55:00 19.6 C 13 g/m*3 19.6 C 0 km/h
49 09-08-2020 04:00:00 19.6 C 12.83 g/m*3 19.6 C 0 km/h
50 09-08-2020 04:05:00 19.6 C 13 g/m*3 19.6 C 0 km/h
Sensor: Nr:Datum:Temp:Abs-Feuchte:Windchill:Wind:
Aussen-T/F 51 09-08-2020 04:10:00 19.5 C 12.92 g/m*3 19.5 C 0 km/h
52 09-08-2020 04:15:00 19.4 C 12.85 g/m*3 19.4 C 0 km/h
53 09-08-2020 04:20:00 19.4 C 12.85 g/m*3 19.4 C 0 km/h
54 09-08-2020 04:25:00 19.4 C 12.85 g/m*3 19.4 C 0 km/h
55 09-08-2020 04:30:00 19.4 C 12.85 g/m*3 19.4 C 0 km/h
56 09-08-2020 04:35:00 19.3 C 12.77 g/m*3 19.3 C 0 km/h
57 09-08-2020 04:40:00 19.3 C 12.77 g/m*3 19.3 C 0 km/h
58 09-08-2020 04:45:00 19.2 C 12.86 g/m*3 19.2 C 0 km/h
59 09-08-2020 04:50:00 19.2 C 12.86 g/m*3 19.2 C 0 km/h
60 09-08-2020 04:55:00 19.2 C 12.86 g/m*3 19.2 C 0 km/h
61 09-08-2020 05:00:00 19.2 C 12.86 g/m*3 19.2 C 0 km/h
62 09-08-2020 05:05:00 19.1 C 12.79 g/m*3 19.1 C 0 km/h
63 09-08-2020 05:10:00 18.9 C 12.8 g/m*3 18.9 C 0 km/h
64 09-08-2020 05:15:00 18.9 C 12.8 g/m*3 18.9 C 0 km/h
65 09-08-2020 05:20:00 18.8 C 12.72 g/m*3 18.8 C 0 km/h
66 09-08-2020 05:25:00 18.7 C 12.65 g/m*3 18.7 C 0 km/h
67 09-08-2020 05:30:00 18.7 C 12.81 g/m*3 18.7 C 0 km/h
68 09-08-2020 05:35:00 18.6 C 12.73 g/m*3 18.6 C 0 km/h
69 09-08-2020 05:40:00 18.6 C 12.73 g/m*3 18.6 C 0 km/h
70 09-08-2020 05:45:00 18.6 C 12.89 g/m*3 18.6 C 0 km/h
71 09-08-2020 05:50:00 18.6 C 12.73 g/m*3 18.6 C 0 km/h
72 09-08-2020 05:55:00 18.6 C 12.73 g/m*3 18.6 C 0 km/h
73 09-08-2020 06:00:00 18.6 C 12.73 g/m*3 18.6 C 0 km/h
74 09-08-2020 06:05:00 18.4 C 12.58 g/m*3 18.4 C 0 km/h
75 09-08-2020 06:10:00 18.4 C 12.74 g/m*3 18.4 C 0 km/h
Sensor: Nr:Datum:Temp:Abs-Feuchte:Windchill:Wind:
Aussen-T/F 76 09-08-2020 06:15:00 18.4 C 12.74 g/m*3 18.4 C 0 km/h
77 09-08-2020 06:20:00 18.4 C 12.74 g/m*3 18.4 C 0 km/h
78 09-08-2020 06:25:00 18.4 C 12.74 g/m*3 18.4 C 0 km/h
79 09-08-2020 06:30:00 18.5 C 12.82 g/m*3 18.5 C 0 km/h
80 09-08-2020 06:35:00 18.6 C 12.89 g/m*3 18.6 C 0 km/h
81 09-08-2020 06:40:00 18.6 C 12.89 g/m*3 18.6 C 0 km/h
82 09-08-2020 06:45:00 18.7 C 13.13 g/m*3 18.7 C 0 km/h
83 09-08-2020 06:50:00 18.7 C 13.13 g/m*3 18.7 C 0 km/h
84 09-08-2020 06:55:00 18.8 C 13.21 g/m*3 18.8 C 0 km/h
85 09-08-2020 07:00:00 18.8 C 13.21 g/m*3 18.8 C 0 km/h
86 09-08-2020 07:05:00 18.9 C 13.28 g/m*3 18.9 C 0 km/h
87 09-08-2020 07:10:00 18.9 C 13.28 g/m*3 18.9 C 0 km/h
88 09-08-2020 07:15:00 18.9 C 13.28 g/m*3 18.9 C 0 km/h
89 09-08-2020 07:20:00 18.9 C 13.28 g/m*3 18.9 C 0 km/h
90 09-08-2020 07:25:00 18.9 C 13.28 g/m*3 18.9 C 0 km/h
91 09-08-2020 07:30:00 18.9 C 13.28 g/m*3 18.9 C 0 km/h
92 09-08-2020 07:35:00 19 C 13.53 g/m*3 19 C 0 km/h
93 09-08-2020 07:40:00 19 C 13.36 g/m*3 19 C 0 km/h
94 09-08-2020 07:45:00 19.1 C 13.61 g/m*3 19.1 C 0 km/h
95 09-08-2020 07:50:00 19.1 C 13.61 g/m*3 19.1 C 0 km/h
96 09-08-2020 07:55:00 19.2 C 13.52 g/m*3 19.2 C 0 km/h
97 09-08-2020 08:00:00 19.2 C 13.69 g/m*3 19.2 C 0 km/h
98 09-08-2020 08:05:00 19.3 C 13.77 g/m*3 19.3 C 0 km/h
99 09-08-2020 08:10:00 19.4 C 13.68 g/m*3 19.4 C 0 km/h
100 09-08-2020 08:15:00 19.5 C 13.76 g/m*3 19.5 C 0 km/h
Sensor: Nr:Datum:Temp:Abs-Feuchte:Windchill:Wind:
Aussen-T/F 101 09-08-2020 08:20:00 19.6 C 13.84 g/m*3 19.6 C 0 km/h
102 09-08-2020 08:25:00 19.7 C 13.75 g/m*3 19.7 C 0 km/h
103 09-08-2020 08:30:00 19.8 C 13.84 g/m*3 19.8 C 0 km/h
104 09-08-2020 08:35:00 19.9 C 13.92 g/m*3 19.9 C 0 km/h
105 09-08-2020 08:40:00 20 C 14 g/m*3 20 C 0 km/h
106 09-08-2020 08:45:00 20.1 C 14.08 g/m*3 20.1 C 0 km/h
107 09-08-2020 08:50:00 20.3 C 14.07 g/m*3 20.3 C 0 km/h
108 09-08-2020 08:55:00 20.4 C 14.33 g/m*3 20.4 C 0 km/h
109 09-08-2020 09:00:00 20.6 C 14.5 g/m*3 20.6 C 0 km/h
110 09-08-2020 09:05:00 20.7 C 14.58 g/m*3 20.7 C 0 km/h
111 09-08-2020 09:10:00 20.8 C 14.67 g/m*3 20.8 C 0 km/h
112 09-08-2020 09:15:00 20.9 C 14.57 g/m*3 20.9 C 0 km/h
113 09-08-2020 09:20:00 21.1 C 14.74 g/m*3 21.1 C 0 km/h
114 09-08-2020 09:25:00 21.2 C 14.83 g/m*3 21.2 C 0 km/h
115 09-08-2020 09:30:00 21.3 C 14.73 g/m*3 21.3 C 0 km/h
116 09-08-2020 09:35:00 21.6 C 14.79 g/m*3 21.6 C 0 km/h
117 09-08-2020 09:40:00 21.8 C 14.97 g/m*3 21.8 C 0 km/h
118 09-08-2020 09:45:00 21.9 C 14.86 g/m*3 21.9 C 0 km/h
119 09-08-2020 09:50:00 22.2 C 14.72 g/m*3 22.2 C 0 km/h
120 09-08-2020 09:55:00 22.4 C 14.7 g/m*3 22.4 C 0 km/h
121 09-08-2020 10:00:00 22.7 C 14.55 g/m*3 22.7 C 0 km/h
122 09-08-2020 10:05:00 22.9 C 14.71 g/m*3 22.9 C 0 km/h
123 09-08-2020 10:10:00 23.2 C 14.55 g/m*3 23.2 C 0 km/h
124 09-08-2020 10:15:00 23.4 C 14.51 g/m*3 23.4 C 0 km/h
125 09-08-2020 10:20:00 23.7 C 14.54 g/m*3 23.7 C 0 km/h
Sensor: Nr:Datum:Temp:Abs-Feuchte:Windchill:Wind:
Aussen-T/F 126 09-08-2020 10:25:00 23.9 C 14.49 g/m*3 23.9 C 0 km/h
127 09-08-2020 10:30:00 24.2 C 14.3 g/m*3 24.2 C 0 km/h
128 09-08-2020 10:35:00 24.5 C 14.77 g/m*3 24.5 C 0 km/h
129 09-08-2020 10:40:00 24.8 C 15.02 g/m*3 24.8 C 0 km/h
130 09-08-2020 10:45:00 25.2 C 15.13 g/m*3 25.2 C 0 km/h
131 09-08-2020 10:50:00 25.4 C 14.83 g/m*3 25.4 C 0 km/h
132 09-08-2020 10:55:00 25.8 C 15.17 g/m*3 25.8 C 0 km/h
133 09-08-2020 11:00:00 26.1 C 14.93 g/m*3 26.1 C 0 km/h
134 09-08-2020 11:05:00 26.4 C 14.69 g/m*3 26.4 C 0 km/h
135 09-08-2020 11:10:00 26.8 C 15.02 g/m*3 26.8 C 0 km/h
136 09-08-2020 11:15:00 27.2 C 15.09 g/m*3 27.2 C 0 km/h
137 09-08-2020 11:20:00 27.7 C 15.25 g/m*3 27.7 C 0 km/h
138 09-08-2020 11:25:00 28.1 C 15.04 g/m*3 28.1 C 0 km/h
139 09-08-2020 11:30:00 28.4 C 15.01 g/m*3 28.4 C 0 km/h
140 09-08-2020 11:35:00 28.8 C 14.21 g/m*3 28.8 C 0 km/h
141 09-08-2020 11:40:00 29.3 C 14.01 g/m*3 29.3 C 0 km/h
142 09-08-2020 11:45:00 29.7 C 14.32 g/m*3 29.7 C 0 km/h
143 09-08-2020 11:50:00 30.1 C 14.02 g/m*3 30.1 C 0 km/h
144 09-08-2020 11:55:00 30.4 C 14.25 g/m*3 30.4 C 0 km/h
145 09-08-2020 12:00:00 30.7 C 13.86 g/m*3 30.7 C 0 km/h
146 09-08-2020 12:05:00 30.9 C 13.69 g/m*3 30.9 C 0 km/h
147 09-08-2020 12:10:00 31.3 C 13.66 g/m*3 31.3 C 0 km/h
148 09-08-2020 12:15:00 31.6 C 14.21 g/m*3 31.6 C 0 km/h
149 09-08-2020 12:20:00 31.8 C 13.69 g/m*3 31.8 C 0 km/h
150 09-08-2020 12:25:00 31.9 C 13.43 g/m*3 31.9 C 0 km/h
Sensor: Nr:Datum:Temp:Abs-Feuchte:Windchill:Wind:
Aussen-T/F 151 09-08-2020 12:30:00 32.2 C 13.31 g/m*3 32.2 C 0 km/h
152 09-08-2020 12:35:00 32.4 C 13.79 g/m*3 32.4 C 6.4 km/h
153 09-08-2020 12:40:00 32.6 C 13.59 g/m*3 32.6 C 8.1 km/h
154 09-08-2020 12:45:00 32.8 C 13.38 g/m*3 32.8 C 4.8 km/h
155 09-08-2020 12:50:00 32.9 C 13.46 g/m*3 32.9 C 8.1 km/h
156 09-08-2020 12:55:00 33.1 C 13.6 g/m*3 33.1 C 6.4 km/h
157 09-08-2020 13:00:00 33.2 C 12.95 g/m*3 33.2 C 6.4 km/h
158 09-08-2020 13:05:00 33.3 C 12.66 g/m*3 33.3 C 6.4 km/h
159 09-08-2020 13:10:00 33.4 C 13.09 g/m*3 33.4 C 4.8 km/h
160 09-08-2020 13:15:00 33.6 C 13.23 g/m*3 33.6 C 4.8 km/h
161 09-08-2020 13:20:00 33.5 C 12.79 g/m*3 33.5 C 3.2 km/h
162 09-08-2020 13:25:00 33.6 C 12.86 g/m*3 33.6 C 4.8 km/h
163 09-08-2020 13:30:00 33.6 C 13.23 g/m*3 33.6 C 4.8 km/h
164 09-08-2020 13:35:00 33.6 C 12.86 g/m*3 33.6 C 4.8 km/h
165 09-08-2020 13:40:00 33.6 C 12.86 g/m*3 33.6 C 1.6 km/h
166 09-08-2020 13:45:00 33.7 C 12.93 g/m*3 33.7 C 9.7 km/h
167 09-08-2020 13:50:00 33.8 C 12.62 g/m*3 33.8 C 9.7 km/h
168 09-08-2020 13:55:00 33.9 C 13.06 g/m*3 33.9 C 6.4 km/h
169 09-08-2020 14:00:00 34.2 C 12.89 g/m*3 34.2 C 4.8 km/h
170 09-08-2020 14:05:00 34.5 C 13.1 g/m*3 34.5 C 8.1 km/h
171 09-08-2020 14:10:00 34.7 C 12.84 g/m*3 34.7 C 6.4 km/h
172 09-08-2020 14:15:00 34.7 C 13.23 g/m*3 34.7 C 8.1 km/h
173 09-08-2020 14:20:00 34.8 C 13.3 g/m*3 34.8 C 6.4 km/h
174 09-08-2020 14:25:00 34.8 C 12.52 g/m*3 34.8 C 8.1 km/h
175 09-08-2020 14:30:00 34.7 C 12.84 g/m*3 34.7 C 1.6 km/h
Sensor: Nr:Datum:Temp:Abs-Feuchte:Windchill:Wind:
Aussen-T/F 176 09-08-2020 14:35:00 34.7 C 12.84 g/m*3 34.7 C 6.4 km/h
177 09-08-2020 14:40:00 34.4 C 13.03 g/m*3 34.4 C 6.4 km/h
178 09-08-2020 14:45:00 34.3 C 13.34 g/m*3 34.3 C 6.4 km/h
179 09-08-2020 14:50:00 34.1 C 13.96 g/m*3 34.1 C 8.1 km/h
180 09-08-2020 14:55:00 33.7 C 13.67 g/m*3 33.7 C 9.7 km/h
181 09-08-2020 15:00:00 33.3 C 13.74 g/m*3 33.3 C 6.4 km/h
182 09-08-2020 15:05:00 33.1 C 14.67 g/m*3 33.1 C 0 km/h
183 09-08-2020 15:10:00 32.8 C 17.96 g/m*3 32.8 C 6.4 km/h
184 09-08-2020 15:15:00 32.3 C 18.87 g/m*3 32.3 C 6.4 km/h
185 09-08-2020 15:20:00 31.7 C 18.27 g/m*3 31.7 C 4.8 km/h
186 09-08-2020 15:25:00 31.1 C 18.34 g/m*3 31.1 C 3.2 km/h
187 09-08-2020 15:30:00 30.7 C 18.26 g/m*3 30.7 C 1.6 km/h
188 09-08-2020 15:35:00 30.3 C 17.26 g/m*3 30.3 C 8.1 km/h
189 09-08-2020 15:40:00 30.1 C 14.33 g/m*3 30.1 C 14.5 km/h
190 09-08-2020 15:45:00 30.1 C 14.63 g/m*3 30.1 C 6.4 km/h
191 09-08-2020 15:50:00 29.9 C 14.78 g/m*3 29.9 C 14.5 km/h
192 09-08-2020 15:55:00 29.6 C 14.54 g/m*3 29.6 C 11.3 km/h
193 09-08-2020 16:00:00 29.3 C 14.89 g/m*3 29.3 C 4.8 km/h
194 09-08-2020 16:05:00 29.2 C 14.23 g/m*3 29.2 C 4.8 km/h
195 09-08-2020 16:10:00 29 C 14.36 g/m*3 29 C 9.7 km/h
196 09-08-2020 16:15:00 28.9 C 14.28 g/m*3 28.9 C 9.7 km/h
197 09-08-2020 16:20:00 28.8 C 14.49 g/m*3 28.8 C 3.2 km/h
198 09-08-2020 16:25:00 28.8 C 14.21 g/m*3 28.8 C 3.2 km/h
199 09-08-2020 16:30:00 28.8 C 14.49 g/m*3 28.8 C 3.2 km/h
200 09-08-2020 16:35:00 28.7 C 14.13 g/m*3 28.7 C 6.4 km/h
Sensor: Nr:Datum:Temp:Abs-Feuchte:Windchill:Wind:
Aussen-T/F 201 09-08-2020 16:40:00 28.7 C 14.41 g/m*3 28.7 C 1.6 km/h
202 09-08-2020 16:45:00 28.7 C 14.41 g/m*3 28.7 C 1.6 km/h
203 09-08-2020 16:50:00 28.7 C 14.41 g/m*3 28.7 C 4.8 km/h
204 09-08-2020 16:55:00 28.6 C 14.33 g/m*3 28.6 C 6.4 km/h
205 09-08-2020 17:00:00 28.4 C 14.18 g/m*3 28.4 C 8.1 km/h
206 09-08-2020 17:05:00 28.4 C 15.01 g/m*3 28.4 C 1.6 km/h
207 09-08-2020 17:10:00 28.3 C 15.2 g/m*3 28.3 C 0 km/h
208 09-08-2020 17:15:00 28.3 C 14.93 g/m*3 28.3 C 3.2 km/h
209 09-08-2020 17:20:00 28.2 C 14.57 g/m*3 28.2 C 0 km/h
210 09-08-2020 17:25:00 28.1 C 15.59 g/m*3 28.1 C 1.6 km/h
211 09-08-2020 17:30:00 27.9 C 14.06 g/m*3 27.9 C 3.2 km/h
212 09-08-2020 17:35:00 27.8 C 13.99 g/m*3 27.8 C 4.8 km/h
213 09-08-2020 17:40:00 27.8 C 13.99 g/m*3 27.8 C 3.2 km/h
214 09-08-2020 17:45:00 27.7 C 13.91 g/m*3 27.7 C 3.2 km/h
215 09-08-2020 17:50:00 27.7 C 14.44 g/m*3 27.7 C 3.2 km/h
216 09-08-2020 17:55:00 27.7 C 14.44 g/m*3 27.7 C 4.8 km/h
217 09-08-2020 18:00:00 27.6 C 14.63 g/m*3 27.6 C 1.6 km/h
218 09-08-2020 18:05:00 27.6 C 13.83 g/m*3 27.6 C 6.4 km/h
219 09-08-2020 18:10:00 27.6 C 14.37 g/m*3 27.6 C 4.8 km/h
220 09-08-2020 18:15:00 27.6 C 14.37 g/m*3 27.6 C 4.8 km/h
221 09-08-2020 18:20:00 27.6 C 14.37 g/m*3 27.6 C 6.4 km/h
222 09-08-2020 18:25:00 27.6 C 14.63 g/m*3 27.6 C 4.8 km/h
223 09-08-2020 18:30:00 27.5 C 14.29 g/m*3 27.5 C 3.2 km/h
224 09-08-2020 18:35:00 27.4 C 13.94 g/m*3 27.4 C 6.4 km/h
225 09-08-2020 18:40:00 27.4 C 14.21 g/m*3 27.4 C 3.2 km/h
Sensor: Nr:Datum:Temp:Abs-Feuchte:Windchill:Wind:
Aussen-T/F 226 09-08-2020 18:45:00 27.4 C 14.21 g/m*3 27.4 C 1.6 km/h
227 09-08-2020 18:50:00 27.4 C 14.73 g/m*3 27.4 C 1.6 km/h
228 09-08-2020 18:55:00 27.4 C 15 g/m*3 27.4 C 1.6 km/h
229 09-08-2020 19:00:00 27.3 C 14.91 g/m*3 27.3 C 1.6 km/h
230 09-08-2020 19:05:00 27.3 C 15.44 g/m*3 27.3 C 1.6 km/h
231 09-08-2020 19:10:00 27.3 C 15.44 g/m*3 27.3 C 1.6 km/h
232 09-08-2020 19:15:00 27.2 C 15.61 g/m*3 27.2 C 1.6 km/h
233 09-08-2020 19:20:00 27.1 C 15.27 g/m*3 27.1 C 1.6 km/h
234 09-08-2020 19:25:00 27.1 C 15.27 g/m*3 27.1 C 1.6 km/h
235 09-08-2020 19:30:00 27 C 15.96 g/m*3 27 C 1.6 km/h
236 09-08-2020 19:35:00 26.9 C 16.12 g/m*3 26.9 C 3.2 km/h
237 09-08-2020 19:40:00 26.7 C 16.45 g/m*3 26.7 C 3.2 km/h
238 09-08-2020 19:45:00 26.5 C 16.27 g/m*3 26.5 C 1.6 km/h
239 09-08-2020 19:50:00 26.3 C 16.34 g/m*3 26.3 C 0 km/h
240 09-08-2020 19:55:00 25.9 C 15.98 g/m*3 25.9 C 19.3 km/h
241 09-08-2020 20:00:00 25.4 C 15.77 g/m*3 25.4 C 19.3 km/h
242 09-08-2020 20:05:00 25.1 C 15.51 g/m*3 25.1 C 17.7 km/h
243 09-08-2020 20:10:00 24.9 C 15.34 g/m*3 24.9 C 3.2 km/h
244 09-08-2020 20:15:00 24.8 C 15.48 g/m*3 24.8 C 8.1 km/h
245 09-08-2020 20:20:00 24.8 C 15.25 g/m*3 24.8 C 8.1 km/h
246 09-08-2020 20:25:00 24.8 C 15.25 g/m*3 24.8 C 6.4 km/h
247 09-08-2020 20:30:00 24.7 C 15.62 g/m*3 24.7 C 6.4 km/h
248 09-08-2020 20:35:00 24.6 C 15.75 g/m*3 24.6 C 4.8 km/h
249 09-08-2020 20:40:00 24.4 C 15.58 g/m*3 24.4 C 1.6 km/h
250 09-08-2020 20:45:00 24.3 C 16.82 g/m*3 24.3 C 3.2 km/h
Sensor: Nr:Datum:Temp:Abs-Feuchte:Windchill:Wind:
Aussen-T/F 251 09-08-2020 20:50:00 24 C 17.19 g/m*3 24 C 1.6 km/h
252 09-08-2020 20:55:00 23.4 C 16.61 g/m*3 23.4 C 9.7 km/h
253 09-08-2020 21:00:00 22.8 C 16.66 g/m*3 22.8 C 9.7 km/h
254 09-08-2020 21:05:00 22.3 C 16.19 g/m*3 22.3 C 4.8 km/h
255 09-08-2020 21:10:00 21.8 C 15.92 g/m*3 21.8 C 6.4 km/h
256 09-08-2020 21:15:00 21.4 C 15.75 g/m*3 21.4 C 8.1 km/h
257 09-08-2020 21:20:00 21.1 C 15.85 g/m*3 21.1 C 4.8 km/h
258 09-08-2020 21:25:00 20.9 C 15.66 g/m*3 20.9 C 3.2 km/h
259 09-08-2020 21:30:00 20.7 C 15.66 g/m*3 20.7 C 4.8 km/h
260 09-08-2020 21:35:00 20.6 C 15.75 g/m*3 20.6 C 6.4 km/h
261 09-08-2020 21:40:00 20.5 C 15.84 g/m*3 20.5 C 6.4 km/h
262 09-08-2020 21:45:00 20.5 C 15.84 g/m*3 20.5 C 6.4 km/h
263 09-08-2020 21:50:00 20.4 C 15.92 g/m*3 20.4 C 8.1 km/h
264 09-08-2020 21:55:00 20.4 C 15.92 g/m*3 20.4 C 4.8 km/h
265 09-08-2020 22:00:00 20.4 C 15.92 g/m*3 20.4 C 6.4 km/h
266 09-08-2020 22:05:00 20.5 C 16.19 g/m*3 20.5 C 6.4 km/h
267 09-08-2020 22:10:00 20.6 C 16.29 g/m*3 20.6 C 6.4 km/h
268 09-08-2020 22:15:00 20.6 C 16.29 g/m*3 20.6 C 0 km/h
269 09-08-2020 22:20:00 20.7 C 16.38 g/m*3 20.7 C 3.2 km/h
270 09-08-2020 22:25:00 20.7 C 16.38 g/m*3 20.7 C 6.4 km/h
271 09-08-2020 22:30:00 20.7 C 16.38 g/m*3 20.7 C 1.6 km/h
272 09-08-2020 22:35:00 20.7 C 16.38 g/m*3 20.7 C 1.6 km/h
273 09-08-2020 22:40:00 20.7 C 16.38 g/m*3 20.7 C 1.6 km/h
274 09-08-2020 22:45:00 20.8 C 16.48 g/m*3 20.8 C 1.6 km/h
275 09-08-2020 22:50:00 20.8 C 16.48 g/m*3 20.8 C 1.6 km/h
Sensor: Nr:Datum:Temp:Abs-Feuchte:Windchill:Wind:
Aussen-T/F 276 09-08-2020 22:55:00 20.8 C 16.3 g/m*3 20.8 C 9.7 km/h
277 09-08-2020 23:00:00 20.8 C 16.3 g/m*3 20.8 C 1.6 km/h
278 09-08-2020 23:05:00 20.8 C 16.3 g/m*3 20.8 C 1.6 km/h
279 09-08-2020 23:10:00 20.8 C 16.3 g/m*3 20.8 C 0 km/h
280 09-08-2020 23:15:00 20.8 C 16.3 g/m*3 20.8 C 0 km/h
281 09-08-2020 23:20:00 20.7 C 16.2 g/m*3 20.7 C 1.6 km/h
282 09-08-2020 23:25:00 20.7 C 16.2 g/m*3 20.7 C 1.6 km/h
283 09-08-2020 23:30:00 20.7 C 16.2 g/m*3 20.7 C 1.6 km/h
284 09-08-2020 23:35:00 20.6 C 15.93 g/m*3 20.6 C 3.2 km/h
285 09-08-2020 23:40:00 20.6 C 16.11 g/m*3 20.6 C 1.6 km/h
286 09-08-2020 23:45:00 20.6 C 16.11 g/m*3 20.6 C 0 km/h
287 09-08-2020 23:50:00 20.5 C 15.84 g/m*3 20.5 C 0 km/h
288 09-08-2020 23:55:00 20.4 C 15.74 g/m*3 20.4 C 1.6 km/h

Legende:
   Min
   Max


Maximal/Minimal-Werte vom 09.08.2020 - 09.08.2020

Sensor Min Max Avg
Temp
(Aussen-T/F)
18.4 °C
09-08-2020  06:05:00
34.8 °C
09-08-2020  14:20:00
24.36 °C
Abs-Feuchte
(Aussen-T/F)
12.52 g/m*3
09-08-2020  14:25:00
18.87 g/m*3
09-08-2020  15:15:00
14.19 g/m*3
Windchill
(Aussen-T/F)
18.4 C
09-08-2020  06:05:00
34.8 C
09-08-2020  14:20:00
24.28 C

Die Daten stammen von einer Davis Vantage Pro 2 Wetter-Station und werden unter Linux mit der Software wview2wettercgi und aufbereitet. Alle Angaben erfolgen ohne Gewähr für ihre Vollständigkeit oder Richtigkeit.
Kontakt: Rainer Krienke krienke@uni-koblenz.de . Meine Webseiten an der Uni Koblenz oder privat.
Version: $Revision: 0.78 $